sensor_id;sensor_type;location;lat;lon;timestamp;pressure;altitude;pressure_sealevel;temperature;humidity
6530;BME280;3298;42.688;23.366;2023-03-31T00:01:08;51721.19;;;-145.06;49.47
6530;BME280;3298;42.688;23.366;2023-03-31T00:03:35;51735.50;;;-145.06;49.78
6530;BME280;3298;42.688;23.366;2023-03-31T00:06:04;51710.94;;;-145.06;49.66
6530;BME280;3298;42.688;23.366;2023-03-31T00:08:31;51692.53;;;-145.06;49.29
6530;BME280;3298;42.688;23.366;2023-03-31T00:11:02;51721.19;;;-145.06;49.40
6530;BME280;3298;42.688;23.366;2023-03-31T00:13:30;51708.91;;;-145.06;49.66
6530;BME280;3298;42.688;23.366;2023-03-31T00:15:59;51700.72;;;-145.06;49.25
6530;BME280;3298;42.688;23.366;2023-03-31T00:18:26;51708.91;;;-145.06;49.41
6530;BME280;3298;42.688;23.366;2023-03-31T00:20:58;51729.38;;;-145.06;49.87
6530;BME280;3298;42.688;23.366;2023-03-31T00:23:26;51713.00;;;-145.06;50.10
6530;BME280;3298;42.688;23.366;2023-03-31T00:25:53;51692.53;;;-145.06;49.81
6530;BME280;3298;42.688;23.366;2023-03-31T00:28:21;51737.56;;;-145.06;50.11
6530;BME280;3298;42.688;23.366;2023-03-31T00:30:49;51715.03;;;-145.06;50.02
6530;BME280;3298;42.688;23.366;2023-03-31T00:33:17;51715.03;;;-145.06;49.63
6530;BME280;3298;42.688;23.366;2023-03-31T00:35:44;51717.09;;;-145.06;49.79
6530;BME280;3298;42.688;23.366;2023-03-31T00:38:10;51704.81;;;-145.06;49.37
6530;BME280;3298;42.688;23.366;2023-03-31T00:40:44;51731.41;;;-145.06;50.00
6530;BME280;3298;42.688;23.366;2023-03-31T00:43:25;51721.19;;;-145.06;50.13
6530;BME280;3298;42.688;23.366;2023-03-31T00:45:59;51704.81;;;-145.06;49.62
6530;BME280;3298;42.688;23.366;2023-03-31T00:48:27;51698.66;;;-145.06;49.44
6530;BME280;3298;42.688;23.366;2023-03-31T00:50:55;51692.53;;;-145.06;49.91
6530;BME280;3298;42.688;23.366;2023-03-31T00:53:25;51721.19;;;-145.06;49.34
6530;BME280;3298;42.688;23.366;2023-03-31T00:55:58;51719.13;;;-145.06;49.53
6530;BME280;3298;42.688;23.366;2023-03-31T00:58:27;51723.22;;;-145.06;49.37
6530;BME280;3298;42.688;23.366;2023-03-31T01:01:00;51725.28;;;-145.06;49.49
6530;BME280;3298;42.688;23.366;2023-03-31T01:03:29;51700.72;;;-145.06;49.74
6530;BME280;3298;42.688;23.366;2023-03-31T01:06:00;51717.09;;;-145.06;50.40
6530;BME280;3298;42.688;23.366;2023-03-31T01:08:27;51708.91;;;-145.06;50.42
6530;BME280;3298;42.688;23.366;2023-03-31T01:10:59;51713.00;;;-145.06;50.48
6530;BME280;3298;42.688;23.366;2023-03-31T01:13:28;51708.91;;;-145.06;51.17
6530;BME280;3298;42.688;23.366;2023-03-31T01:15:56;51721.19;;;-145.06;50.50
6530;BME280;3298;42.688;23.366;2023-03-31T01:18:24;51721.19;;;-145.06;50.54
6530;BME280;3298;42.688;23.366;2023-03-31T01:21:16;51717.09;;;-145.06;51.09
6530;BME280;3298;42.688;23.366;2023-03-31T01:24:15;51719.13;;;-145.06;51.50
6530;BME280;3298;42.688;23.366;2023-03-31T01:26:57;51731.41;;;-145.06;52.01
6530;BME280;3298;42.688;23.366;2023-03-31T01:29:44;51729.38;;;-145.06;50.89
6530;BME280;3298;42.688;23.366;2023-03-31T01:32:53;51729.38;;;-145.06;51.14
6530;BME280;3298;42.688;23.366;2023-03-31T01:35:46;51725.28;;;-145.06;50.86
6530;BME280;3298;42.688;23.366;2023-03-31T01:38:49;51696.63;;;-145.06;51.09
6530;BME280;3298;42.688;23.366;2023-03-31T01:41:49;51717.09;;;-145.06;51.34
6530;BME280;3298;42.688;23.366;2023-03-31T01:44:25;51713.00;;;-145.06;50.83
6530;BME280;3298;42.688;23.366;2023-03-31T01:46:57;51706.84;;;-145.06;51.05
6530;BME280;3298;42.688;23.366;2023-03-31T01:49:33;51721.19;;;-145.06;50.70
6530;BME280;3298;42.688;23.366;2023-03-31T01:52:09;51725.28;;;-145.06;51.34
6530;BME280;3298;42.688;23.366;2023-03-31T01:54:45;51698.66;;;-145.06;50.89
6530;BME280;3298;42.688;23.366;2023-03-31T01:57:18;51725.28;;;-145.06;51.06
6530;BME280;3298;42.688;23.366;2023-03-31T01:59:53;51690.47;;;-145.06;51.51
6530;BME280;3298;42.688;23.366;2023-03-31T02:02:26;51696.63;;;-145.06;52.09
6530;BME280;3298;42.688;23.366;2023-03-31T02:04:56;51713.00;;;-145.06;51.98
6530;BME280;3298;42.688;23.366;2023-03-31T02:07:28;51713.00;;;-145.06;51.79
6530;BME280;3298;42.688;23.366;2023-03-31T02:10:00;51733.47;;;-145.06;51.35
6530;BME280;3298;42.688;23.366;2023-03-31T02:12:31;51721.19;;;-145.06;51.08
6530;BME280;3298;42.688;23.366;2023-03-31T02:15:02;51696.63;;;-145.06;51.36
6530;BME280;3298;42.688;23.366;2023-03-31T02:17:29;51717.09;;;-145.06;51.15
6530;BME280;3298;42.688;23.366;2023-03-31T02:20:00;51717.09;;;-145.06;51.18
6530;BME280;3298;42.688;23.366;2023-03-31T02:22:34;51725.28;;;-145.06;51.29
6530;BME280;3298;42.688;23.366;2023-03-31T02:25:03;51706.84;;;-145.06;51.83
6530;BME280;3298;42.688;23.366;2023-03-31T02:27:35;51706.84;;;-145.06;52.03
6530;BME280;3298;42.688;23.366;2023-03-31T02:30:05;51782.59;;;-145.06;53.05
6530;BME280;3298;42.688;23.366;2023-03-31T02:32:35;51721.19;;;-145.06;53.11
6530;BME280;3298;42.688;23.366;2023-03-31T02:35:04;51710.94;;;-145.06;52.89
6530;BME280;3298;42.688;23.366;2023-03-31T02:37:31;51713.00;;;-145.06;54.15
6530;BME280;3298;42.688;23.366;2023-03-31T02:40:02;51686.38;;;-145.06;54.69
6530;BME280;3298;42.688;23.366;2023-03-31T02:42:36;51745.75;;;-145.06;55.82
6530;BME280;3298;42.688;23.366;2023-03-31T02:45:04;51719.13;;;-145.06;56.87
6530;BME280;3298;42.688;23.366;2023-03-31T02:47:32;51706.84;;;-145.06;56.82
6530;BME280;3298;42.688;23.366;2023-03-31T02:50:00;51721.19;;;-145.06;57.16
6530;BME280;3298;42.688;23.366;2023-03-31T02:52:38;51700.72;;;-145.06;55.61
6530;BME280;3298;42.688;23.366;2023-03-31T02:55:25;51704.81;;;-145.06;56.00
6530;BME280;3298;42.688;23.366;2023-03-31T02:58:21;51700.72;;;-145.06;59.04
6530;BME280;3298;42.688;23.366;2023-03-31T03:01:06;51690.47;;;-145.06;61.39
6530;BME280;3298;42.688;23.366;2023-03-31T03:03:43;51725.28;;;-145.06;65.08
6530;BME280;3298;42.688;23.366;2023-03-31T03:06:31;51717.09;;;-145.06;66.41
6530;BME280;3298;42.688;23.366;2023-03-31T03:09:16;51733.47;;;-145.06;68.50
6530;BME280;3298;42.688;23.366;2023-03-31T03:11:53;51690.47;;;-145.06;69.00
6530;BME280;3298;42.688;23.366;2023-03-31T03:14:33;51741.66;;;-145.06;69.52
6530;BME280;3298;42.688;23.366;2023-03-31T03:17:05;51715.03;;;-145.06;69.01
6530;BME280;3298;42.688;23.366;2023-03-31T03:19:34;51729.38;;;-145.06;66.15
6530;BME280;3298;42.688;23.366;2023-03-31T03:22:00;51717.09;;;-145.06;65.43
6530;BME280;3298;42.688;23.366;2023-03-31T03:24:27;51733.47;;;-145.06;66.81
6530;BME280;3298;42.688;23.366;2023-03-31T03:26:55;51733.47;;;-145.06;68.60
6530;BME280;3298;42.688;23.366;2023-03-31T03:29:22;51737.56;;;-145.06;71.66
6530;BME280;3298;42.688;23.366;2023-03-31T03:31:53;51743.69;;;-145.06;73.22
6530;BME280;3298;42.688;23.366;2023-03-31T03:34:19;51717.09;;;-145.06;68.79
6530;BME280;3298;42.688;23.366;2023-03-31T03:36:46;51713.00;;;-145.06;65.16
6530;BME280;3298;42.688;23.366;2023-03-31T03:39:13;51733.47;;;-145.06;66.08
6530;BME280;3298;42.688;23.366;2023-03-31T03:41:40;51719.13;;;-145.06;66.82
6530;BME280;3298;42.688;23.366;2023-03-31T03:44:06;51733.47;;;-145.06;67.01
6530;BME280;3298;42.688;23.366;2023-03-31T03:46:33;51727.31;;;-145.06;62.82
6530;BME280;3298;42.688;23.366;2023-03-31T03:49:01;51717.09;;;-145.06;63.16
6530;BME280;3298;42.688;23.366;2023-03-31T03:51:28;51727.31;;;-145.06;63.04
6530;BME280;3298;42.688;23.366;2023-03-31T03:53:55;51725.28;;;-145.06;62.28
6530;BME280;3298;42.688;23.366;2023-03-31T03:56:22;51737.56;;;-145.06;61.65
6530;BME280;3298;42.688;23.366;2023-03-31T03:58:48;51743.69;;;-145.06;61.66
6530;BME280;3298;42.688;23.366;2023-03-31T04:01:15;51725.28;;;-145.06;61.80
6530;BME280;3298;42.688;23.366;2023-03-31T04:03:42;51725.28;;;-145.06;62.21
6530;BME280;3298;42.688;23.366;2023-03-31T04:06:11;51743.69;;;-145.06;63.83
6530;BME280;3298;42.688;23.366;2023-03-31T04:08:37;51713.00;;;-145.06;64.32
6530;BME280;3298;42.688;23.366;2023-03-31T04:11:11;51729.38;;;-145.06;63.08
6530;BME280;3298;42.688;23.366;2023-03-31T04:13:39;51717.09;;;-145.06;64.47
6530;BME280;3298;42.688;23.366;2023-03-31T04:16:06;51729.38;;;-145.06;65.29
6530;BME280;3298;42.688;23.366;2023-03-31T04:18:33;51755.97;;;-145.06;65.08
6530;BME280;3298;42.688;23.366;2023-03-31T04:21:02;51727.31;;;-145.06;64.30
6530;BME280;3298;42.688;23.366;2023-03-31T04:23:35;51749.84;;;-145.06;62.96
6530;BME280;3298;42.688;23.366;2023-03-31T04:26:03;51739.59;;;-145.06;63.34
6530;BME280;3298;42.688;23.366;2023-03-31T04:28:33;51721.19;;;-145.06;65.47
6530;BME280;3298;42.688;23.366;2023-03-31T04:31:00;51731.41;;;-145.06;67.87
6530;BME280;3298;42.688;23.366;2023-03-31T04:33:28;51737.56;;;-145.06;68.22
6530;BME280;3298;42.688;23.366;2023-03-31T04:35:55;51729.38;;;-145.06;66.56
6530;BME280;3298;42.688;23.366;2023-03-31T04:38:22;51713.00;;;-145.06;65.33
6530;BME280;3298;42.688;23.366;2023-03-31T04:40:53;51760.06;;;-145.06;65.32
6530;BME280;3298;42.688;23.366;2023-03-31T04:43:21;51713.00;;;-145.06;65.75
6530;BME280;3298;42.688;23.366;2023-03-31T04:45:47;51717.09;;;-145.06;67.26
6530;BME280;3298;42.688;23.366;2023-03-31T04:48:15;51708.91;;;-145.06;67.61
6530;BME280;3298;42.688;23.366;2023-03-31T04:50:42;51751.88;;;-145.06;68.23
6530;BME280;3298;42.688;23.366;2023-03-31T04:53:08;51739.59;;;-145.06;68.20
6530;BME280;3298;42.688;23.366;2023-03-31T04:55:35;51735.50;;;-145.06;67.22
6530;BME280;3298;42.688;23.366;2023-03-31T04:58:03;51717.09;;;-145.06;66.97
6530;BME280;3298;42.688;23.366;2023-03-31T05:00:30;51727.31;;;-145.06;66.15
6530;BME280;3298;42.688;23.366;2023-03-31T05:02:58;51684.34;;;-145.06;65.21
6530;BME280;3298;42.688;23.366;2023-03-31T05:05:26;51751.88;;;-145.06;65.59
6530;BME280;3298;42.688;23.366;2023-03-31T05:07:53;51755.97;;;-145.06;65.44
6530;BME280;3298;42.688;23.366;2023-03-31T05:10:21;51731.41;;;-145.06;65.75
6530;BME280;3298;42.688;23.366;2023-03-31T05:12:48;51737.56;;;-145.06;65.69
6530;BME280;3298;42.688;23.366;2023-03-31T05:15:16;51745.75;;;-145.06;65.74
6530;BME280;3298;42.688;23.366;2023-03-31T05:17:43;51708.91;;;-145.06;65.65
6530;BME280;3298;42.688;23.366;2023-03-31T05:20:11;51737.56;;;-145.06;65.33
6530;BME280;3298;42.688;23.366;2023-03-31T05:22:39;51741.66;;;-145.06;64.10
6530;BME280;3298;42.688;23.366;2023-03-31T05:25:07;51729.38;;;-145.06;65.18
6530;BME280;3298;42.688;23.366;2023-03-31T05:27:36;51735.50;;;-145.06;66.28
6530;BME280;3298;42.688;23.366;2023-03-31T05:30:03;51758.03;;;-145.06;64.42
6530;BME280;3298;42.688;23.366;2023-03-31T05:32:32;51719.13;;;-145.06;63.22
6530;BME280;3298;42.688;23.366;2023-03-31T05:34:59;51753.94;;;-145.06;62.29
6530;BME280;3298;42.688;23.366;2023-03-31T05:37:26;51713.00;;;-145.06;63.53
6530;BME280;3298;42.688;23.366;2023-03-31T05:39:52;51710.94;;;-145.06;63.14
6530;BME280;3298;42.688;23.366;2023-03-31T05:42:19;51741.66;;;-145.06;63.53
6530;BME280;3298;42.688;23.366;2023-03-31T05:44:46;51749.84;;;-145.06;63.67
6530;BME280;3298;42.688;23.366;2023-03-31T05:47:13;51745.75;;;-145.06;63.03
6530;BME280;3298;42.688;23.366;2023-03-31T05:49:41;51715.03;;;-145.06;61.30
6530;BME280;3298;42.688;23.366;2023-03-31T05:52:08;51762.13;;;-145.06;59.97
6530;BME280;3298;42.688;23.366;2023-03-31T05:54:35;51708.91;;;-145.06;59.73
6530;BME280;3298;42.688;23.366;2023-03-31T05:57:02;51749.84;;;-145.06;58.44
6530;BME280;3298;42.688;23.366;2023-03-31T05:59:29;51735.50;;;-145.06;58.57
6530;BME280;3298;42.688;23.366;2023-03-31T06:01:56;51735.50;;;-145.06;58.82
6530;BME280;3298;42.688;23.366;2023-03-31T06:04:23;51737.56;;;-145.06;58.67
6530;BME280;3298;42.688;23.366;2023-03-31T06:06:51;51737.56;;;-145.06;58.87
6530;BME280;3298;42.688;23.366;2023-03-31T06:09:18;51741.66;;;-145.06;59.77
6530;BME280;3298;42.688;23.366;2023-03-31T06:11:45;51739.59;;;-145.06;59.17
6530;BME280;3298;42.688;23.366;2023-03-31T06:14:12;51729.38;;;-145.06;58.28
6530;BME280;3298;42.688;23.366;2023-03-31T06:16:39;51758.03;;;-145.06;58.36
6530;BME280;3298;42.688;23.366;2023-03-31T06:19:06;51710.94;;;-145.06;57.60
6530;BME280;3298;42.688;23.366;2023-03-31T06:21:36;51729.38;;;-145.06;57.02
6530;BME280;3298;42.688;23.366;2023-03-31T06:24:04;51721.19;;;-145.06;56.43
6530;BME280;3298;42.688;23.366;2023-03-31T06:26:31;51749.84;;;-145.06;56.25
6530;BME280;3298;42.688;23.366;2023-03-31T06:28:58;51741.66;;;-145.06;56.77
6530;BME280;3298;42.688;23.366;2023-03-31T06:31:25;51751.88;;;-145.06;57.38
6530;BME280;3298;42.688;23.366;2023-03-31T06:33:52;51737.56;;;-145.06;56.11
6530;BME280;3298;42.688;23.366;2023-03-31T06:36:20;51735.50;;;-145.06;56.04
6530;BME280;3298;42.688;23.366;2023-03-31T06:38:47;51731.41;;;-145.06;56.02
6530;BME280;3298;42.688;23.366;2023-03-31T06:41:17;51747.78;;;-145.06;55.04
6530;BME280;3298;42.688;23.366;2023-03-31T06:43:45;51745.75;;;-145.06;54.97
6530;BME280;3298;42.688;23.366;2023-03-31T06:46:12;51745.75;;;-145.06;54.39
6530;BME280;3298;42.688;23.366;2023-03-31T06:48:39;51713.00;;;-145.06;53.84
6530;BME280;3298;42.688;23.366;2023-03-31T06:51:07;51692.53;;;-145.06;54.59
6530;BME280;3298;42.688;23.366;2023-03-31T06:53:34;51758.03;;;-145.06;54.57
6530;BME280;3298;42.688;23.366;2023-03-31T06:56:02;51721.19;;;-145.06;54.52
6530;BME280;3298;42.688;23.366;2023-03-31T06:58:30;51758.03;;;-145.06;53.84
6530;BME280;3298;42.688;23.366;2023-03-31T07:00:57;51717.09;;;-145.06;53.39
6530;BME280;3298;42.688;23.366;2023-03-31T07:03:24;51758.03;;;-145.06;54.02
6530;BME280;3298;42.688;23.366;2023-03-31T07:05:52;51758.03;;;-145.06;53.21
6530;BME280;3298;42.688;23.366;2023-03-31T07:08:19;51721.19;;;-145.06;52.80
6530;BME280;3298;42.688;23.366;2023-03-31T07:10:47;51753.94;;;-145.06;52.87
6530;BME280;3298;42.688;23.366;2023-03-31T07:13:15;51741.66;;;-145.06;52.74
6530;BME280;3298;42.688;23.366;2023-03-31T07:15:45;51751.88;;;-145.06;52.32
6530;BME280;3298;42.688;23.366;2023-03-31T07:18:12;51733.47;;;-145.06;52.15
6530;BME280;3298;42.688;23.366;2023-03-31T07:20:40;51733.47;;;-145.06;52.06
6530;BME280;3298;42.688;23.366;2023-03-31T07:23:07;51770.31;;;-145.06;51.23
6530;BME280;3298;42.688;23.366;2023-03-31T07:25:34;51766.22;;;-145.06;52.39
6530;BME280;3298;42.688;23.366;2023-03-31T07:28:02;51753.94;;;-145.06;51.34
6530;BME280;3298;42.688;23.366;2023-03-31T07:30:29;51749.84;;;-145.06;50.25
6530;BME280;3298;42.688;23.366;2023-03-31T07:32:58;51770.31;;;-145.06;50.00
6530;BME280;3298;42.688;23.366;2023-03-31T07:35:25;51749.84;;;-145.06;48.92
6530;BME280;3298;42.688;23.366;2023-03-31T07:37:52;51751.88;;;-145.06;49.37
6530;BME280;3298;42.688;23.366;2023-03-31T07:40:21;51758.03;;;-145.06;47.08
6530;BME280;3298;42.688;23.366;2023-03-31T07:42:48;51766.22;;;-145.06;46.68
6530;BME280;3298;42.688;23.366;2023-03-31T07:45:17;51745.75;;;-145.06;46.16
6530;BME280;3298;42.688;23.366;2023-03-31T07:47:44;51751.88;;;-145.06;45.63
6530;BME280;3298;42.688;23.366;2023-03-31T07:50:13;51786.69;;;-145.06;45.50
6530;BME280;3298;42.688;23.366;2023-03-31T07:52:40;51747.78;;;-145.06;45.82
6530;BME280;3298;42.688;23.366;2023-03-31T07:55:07;51762.13;;;-145.06;45.01
6530;BME280;3298;42.688;23.366;2023-03-31T07:57:35;51762.13;;;-145.06;45.11
6530;BME280;3298;42.688;23.366;2023-03-31T08:00:03;51747.78;;;-145.06;45.00
6530;BME280;3298;42.688;23.366;2023-03-31T08:02:33;51782.59;;;-145.06;44.54
6530;BME280;3298;42.688;23.366;2023-03-31T08:05:00;51766.22;;;-145.06;44.54
6530;BME280;3298;42.688;23.366;2023-03-31T08:07:28;51762.13;;;-145.06;43.99
6530;BME280;3298;42.688;23.366;2023-03-31T08:09:55;51798.97;;;-145.06;44.12
6530;BME280;3298;42.688;23.366;2023-03-31T08:12:22;51745.75;;;-145.06;43.91
6530;BME280;3298;42.688;23.366;2023-03-31T08:14:49;51762.13;;;-145.06;43.92
6530;BME280;3298;42.688;23.366;2023-03-31T08:17:16;51737.56;;;-145.06;43.83
6530;BME280;3298;42.688;23.366;2023-03-31T08:19:43;51780.53;;;-145.06;43.63
6530;BME280;3298;42.688;23.366;2023-03-31T08:22:10;51755.97;;;-145.06;43.82
6530;BME280;3298;42.688;23.366;2023-03-31T08:24:38;51735.50;;;-145.06;43.30
6530;BME280;3298;42.688;23.366;2023-03-31T08:27:05;51766.22;;;-145.06;43.30
6530;BME280;3298;42.688;23.366;2023-03-31T08:29:31;51801.00;;;-145.06;43.49
6530;BME280;3298;42.688;23.366;2023-03-31T08:31:58;51760.06;;;-145.06;43.37
6530;BME280;3298;42.688;23.366;2023-03-31T08:34:25;51706.84;;;-145.06;44.28
6530;BME280;3298;42.688;23.366;2023-03-31T08:36:52;51723.22;;;-145.06;43.74
6530;BME280;3298;42.688;23.366;2023-03-31T08:39:19;51772.34;;;-145.06;44.22
6530;BME280;3298;42.688;23.366;2023-03-31T08:41:53;51778.50;;;-145.06;43.81
6530;BME280;3298;42.688;23.366;2023-03-31T08:44:27;51782.59;;;-145.06;44.16
6530;BME280;3298;42.688;23.366;2023-03-31T08:46:58;51751.88;;;-145.06;44.11
6530;BME280;3298;42.688;23.366;2023-03-31T08:49:28;51737.56;;;-145.06;43.99
6530;BME280;3298;42.688;23.366;2023-03-31T08:51:59;51782.59;;;-145.06;44.11
6530;BME280;3298;42.688;23.366;2023-03-31T08:54:31;51755.97;;;-145.06;44.13
6530;BME280;3298;42.688;23.366;2023-03-31T08:57:00;51762.13;;;-145.06;44.11
6530;BME280;3298;42.688;23.366;2023-03-31T08:59:29;51753.94;;;-145.06;44.22
6530;BME280;3298;42.688;23.366;2023-03-31T09:02:03;51749.84;;;-145.06;43.89
6530;BME280;3298;42.688;23.366;2023-03-31T09:05:02;51749.84;;;-145.06;43.80
6530;BME280;3298;42.688;23.366;2023-03-31T09:07:42;51774.41;;;-145.06;43.84
6530;BME280;3298;42.688;23.366;2023-03-31T09:10:30;51766.22;;;-145.06;43.83
6530;BME280;3298;42.688;23.366;2023-03-31T09:13:06;51770.31;;;-145.06;43.08
6530;BME280;3298;42.688;23.366;2023-03-31T09:15:39;51741.66;;;-145.06;43.22
6530;BME280;3298;42.688;23.366;2023-03-31T09:18:14;51751.88;;;-145.06;42.98
6530;BME280;3298;42.688;23.366;2023-03-31T09:20:46;51764.16;;;-145.06;42.42
6530;BME280;3298;42.688;23.366;2023-03-31T09:23:21;51866.50;;;-145.06;41.69
6530;BME280;3298;42.688;23.366;2023-03-31T09:25:50;51772.34;;;-145.06;41.95
6530;BME280;3298;42.688;23.366;2023-03-31T09:28:21;51758.03;;;-145.06;41.40
6530;BME280;3298;42.688;23.366;2023-03-31T09:30:48;51798.97;;;-145.06;40.96
6530;BME280;3298;42.688;23.366;2023-03-31T09:33:17;51766.22;;;-145.06;40.84
6530;BME280;3298;42.688;23.366;2023-03-31T09:35:45;51766.22;;;-145.06;41.35
6530;BME280;3298;42.688;23.366;2023-03-31T09:38:13;51766.22;;;-145.06;41.09
6530;BME280;3298;42.688;23.366;2023-03-31T09:40:41;51788.72;;;-145.06;40.75
6530;BME280;3298;42.688;23.366;2023-03-31T09:43:15;51798.97;;;-145.06;40.54
6530;BME280;3298;42.688;23.366;2023-03-31T09:45:44;51733.47;;;-145.06;40.51
6530;BME280;3298;42.688;23.366;2023-03-31T09:48:14;51805.09;;;-145.06;40.36
6530;BME280;3298;42.688;23.366;2023-03-31T09:50:44;51782.59;;;-145.06;39.90
6530;BME280;3298;42.688;23.366;2023-03-31T09:53:17;51770.31;;;-145.06;39.81
6530;BME280;3298;42.688;23.366;2023-03-31T09:55:49;51788.72;;;-145.06;39.42
6530;BME280;3298;42.688;23.366;2023-03-31T09:58:18;51772.34;;;-145.06;39.02
6530;BME280;3298;42.688;23.366;2023-03-31T10:00:58;51760.06;;;-145.06;39.22
6530;BME280;3298;42.688;23.366;2023-03-31T10:03:26;51803.06;;;-145.06;38.87
6530;BME280;3298;42.688;23.366;2023-03-31T10:05:55;51764.16;;;-145.06;38.63
6530;BME280;3298;42.688;23.366;2023-03-31T10:08:26;51798.97;;;-145.06;38.35
6530;BME280;3298;42.688;23.366;2023-03-31T10:10:56;51780.53;;;-145.06;38.07
6530;BME280;3298;42.688;23.366;2023-03-31T10:13:25;51792.81;;;-145.06;37.81
6530;BME280;3298;42.688;23.366;2023-03-31T10:16:01;51772.34;;;-145.06;37.96
6530;BME280;3298;42.688;23.366;2023-03-31T10:18:33;51774.41;;;-145.06;38.29
6530;BME280;3298;42.688;23.366;2023-03-31T10:21:02;51794.88;;;-145.06;38.06
6530;BME280;3298;42.688;23.366;2023-03-31T10:23:31;51794.88;;;-145.06;38.01
6530;BME280;3298;42.688;23.366;2023-03-31T10:26:00;51786.69;;;-145.06;38.17
6530;BME280;3298;42.688;23.366;2023-03-31T10:28:30;51805.09;;;-145.06;38.11
6530;BME280;3298;42.688;23.366;2023-03-31T10:30:59;51758.03;;;-145.06;37.62
6530;BME280;3298;42.688;23.366;2023-03-31T10:33:29;51790.78;;;-145.06;38.22
6530;BME280;3298;42.688;23.366;2023-03-31T10:36:00;51747.78;;;-145.06;38.16
6530;BME280;3298;42.688;23.366;2023-03-31T10:38:29;51782.59;;;-145.06;38.42
6530;BME280;3298;42.688;23.366;2023-03-31T10:40:58;51782.59;;;-145.06;37.94
6530;BME280;3298;42.688;23.366;2023-03-31T10:43:26;51794.88;;;-145.06;38.45
6530;BME280;3298;42.688;23.366;2023-03-31T10:45:55;51844.00;;;-145.06;38.67
6530;BME280;3298;42.688;23.366;2023-03-31T10:48:26;51790.78;;;-145.06;38.86
6530;BME280;3298;42.688;23.366;2023-03-31T10:50:53;51798.97;;;-145.06;39.29
6530;BME280;3298;42.688;23.366;2023-03-31T10:53:21;51782.59;;;-145.06;39.71
6530;BME280;3298;42.688;23.366;2023-03-31T10:55:58;51745.75;;;-145.06;40.01
6530;BME280;3298;42.688;23.366;2023-03-31T10:58:36;51778.50;;;-145.06;39.68
6530;BME280;3298;42.688;23.366;2023-03-31T11:01:17;51798.97;;;-145.06;40.00
6530;BME280;3298;42.688;23.366;2023-03-31T11:04:07;51790.78;;;-145.06;39.83
6530;BME280;3298;42.688;23.366;2023-03-31T11:06:48;51807.16;;;-145.06;39.53
6530;BME280;3298;42.688;23.366;2023-03-31T11:09:31;51790.78;;;-145.06;39.81
6530;BME280;3298;42.688;23.366;2023-03-31T11:12:06;51778.50;;;-145.06;39.73
6530;BME280;3298;42.688;23.366;2023-03-31T11:14:45;51794.88;;;-145.06;39.75
6530;BME280;3298;42.688;23.366;2023-03-31T11:17:30;51770.31;;;-145.06;39.76
6530;BME280;3298;42.688;23.366;2023-03-31T11:20:11;51950.41;;;-145.06;39.75
6530;BME280;3298;42.688;23.366;2023-03-31T11:22:44;51768.25;;;-145.06;39.28
6530;BME280;3298;42.688;23.366;2023-03-31T11:25:28;51788.72;;;-145.06;39.19
6530;BME280;3298;42.688;23.366;2023-03-31T11:28:35;51790.78;;;-145.06;39.15
6530;BME280;3298;42.688;23.366;2023-03-31T11:31:15;51790.78;;;-145.06;38.63
6530;BME280;3298;42.688;23.366;2023-03-31T11:34:01;51798.97;;;-145.06;38.86
6530;BME280;3298;42.688;23.366;2023-03-31T11:36:48;51790.78;;;-145.06;38.96
6530;BME280;3298;42.688;23.366;2023-03-31T11:39:29;51794.88;;;-145.06;38.62
6530;BME280;3298;42.688;23.366;2023-03-31T11:42:00;51807.16;;;-145.06;38.59
6530;BME280;3298;42.688;23.366;2023-03-31T11:44:35;51780.53;;;-145.06;38.83
6530;BME280;3298;42.688;23.366;2023-03-31T11:47:08;51786.69;;;-145.06;38.71
6530;BME280;3298;42.688;23.366;2023-03-31T11:49:38;51784.63;;;-145.06;38.69
6530;BME280;3298;42.688;23.366;2023-03-31T11:52:13;51778.50;;;-145.06;38.89
6530;BME280;3298;42.688;23.366;2023-03-31T11:54:45;51778.50;;;-145.06;39.18
6530;BME280;3298;42.688;23.366;2023-03-31T11:57:20;51774.41;;;-145.06;39.03
6530;BME280;3298;42.688;23.366;2023-03-31T11:59:57;51786.69;;;-145.06;39.10
6530;BME280;3298;42.688;23.366;2023-03-31T12:02:32;51801.00;;;-145.06;38.98
6530;BME280;3298;42.688;23.366;2023-03-31T12:05:06;51768.25;;;-145.06;38.52
6530;BME280;3298;42.688;23.366;2023-03-31T12:07:38;51790.78;;;-145.06;38.12
6530;BME280;3298;42.688;23.366;2023-03-31T12:10:16;51811.25;;;-145.06;37.93
6530;BME280;3298;42.688;23.366;2023-03-31T12:12:49;51823.53;;;-145.06;38.07
6530;BME280;3298;42.688;23.366;2023-03-31T12:15:20;51821.47;;;-145.06;38.05
6530;BME280;3298;42.688;23.366;2023-03-31T12:17:55;51811.25;;;-145.06;37.86
6530;BME280;3298;42.688;23.366;2023-03-31T12:20:28;51782.59;;;-145.06;38.21
6530;BME280;3298;42.688;23.366;2023-03-31T12:22:59;51817.38;;;-145.06;37.79
6530;BME280;3298;42.688;23.366;2023-03-31T12:25:40;51801.00;;;-145.06;37.76
6530;BME280;3298;42.688;23.366;2023-03-31T12:28:10;51803.06;;;-145.06;37.77
6530;BME280;3298;42.688;23.366;2023-03-31T12:30:38;51796.91;;;-145.06;37.67
6530;BME280;3298;42.688;23.366;2023-03-31T12:33:14;51823.53;;;-145.06;37.48
6530;BME280;3298;42.688;23.366;2023-03-31T12:35:52;51811.25;;;-145.06;37.24
6530;BME280;3298;42.688;23.366;2023-03-31T12:38:36;51813.28;;;-145.06;37.68
6530;BME280;3298;42.688;23.366;2023-03-31T12:41:09;51784.63;;;-145.06;37.69
6530;BME280;3298;42.688;23.366;2023-03-31T12:44:14;51794.88;;;-145.06;37.61
6530;BME280;3298;42.688;23.366;2023-03-31T12:49:56;51819.44;;;-145.06;36.90
6530;BME280;3298;42.688;23.366;2023-03-31T12:52:35;51835.81;;;-145.06;36.50
6530;BME280;3298;42.688;23.366;2023-03-31T12:55:28;51852.19;;;-145.06;36.37
6530;BME280;3298;42.688;23.366;2023-03-31T13:01:05;51807.16;;;-145.06;35.91
6530;BME280;3298;42.688;23.366;2023-03-31T13:03:42;51786.69;;;-145.06;36.13
6530;BME280;3298;42.688;23.366;2023-03-31T13:06:10;51831.72;;;-145.06;35.95
6530;BME280;3298;42.688;23.366;2023-03-31T13:08:52;51796.91;;;-145.06;36.03
6530;BME280;3298;42.688;23.366;2023-03-31T13:11:21;51811.25;;;-145.06;35.86
6530;BME280;3298;42.688;23.366;2023-03-31T13:14:02;51803.06;;;-145.06;35.97
6530;BME280;3298;42.688;23.366;2023-03-31T13:16:30;51903.34;;;-145.06;36.07
6530;BME280;3298;42.688;23.366;2023-03-31T13:18:58;51813.28;;;-145.06;36.38